Time;durP1;ratioP1;P1;durP2;ratioP2;P2;SDS_P1;SDS_P2;PMS_P1;PMS_P2;Temp;Humidity;BMP_temperature;BMP_pressure;BME280_temperature;BME280_humidity;BME280_pressure;Samples;Min_cycle;Max_cycle;Signal;HPM_P1;HPM_P2
2023/03/24 00:08:40;;;;;;;1999.90;999.90;;;14.20;99.90;;;;;;6697949;88;20721;-78
2023/03/24 00:18:41;;;;;;;1999.90;999.90;;;14.20;99.90;;;;;;6695516;88;20190;-78
2023/03/24 00:28:44;;;;;;;1999.90;999.90;;;14.30;99.90;;;;;;6699797;88;20182;-79
2023/03/24 00:38:48;;;;;;;1999.90;999.90;;;14.20;99.90;;;;;;6698959;88;20191;-79
2023/03/24 00:48:52;;;;;;;1999.90;999.90;;;14.30;99.90;;;;;;6696654;88;20178;-79
2023/03/24 00:58:56;;;;;;;1999.90;999.90;;;14.40;99.90;;;;;;6705019;88;20311;-78
2023/03/24 01:08:57;;;;;;;1999.90;999.90;;;14.40;99.90;;;;;;6695346;88;20190;-78
2023/03/24 01:18:58;;;;;;;1999.90;999.90;;;14.20;99.90;;;;;;6699589;88;20608;-78
2023/03/24 01:28:58;;;;;;;1999.90;999.90;;;14.10;99.90;;;;;;6693251;88;21227;-79
2023/03/24 01:39:00;;;;;;;1999.90;999.90;;;13.90;99.90;;;;;;6690240;88;20207;-77
2023/03/24 01:49:05;;;;;;;1999.90;999.90;;;13.80;99.90;;;;;;6692087;88;20202;-77
2023/03/24 01:59:10;;;;;;;1999.90;999.90;;;13.60;99.90;;;;;;6691019;88;20292;-79
2023/03/24 02:09:13;;;;;;;1999.90;999.90;;;13.60;99.90;;;;;;6697771;88;20700;-78
2023/03/24 02:19:39;;;;;;;1999.90;999.90;;;13.70;99.90;;;;;;6708978;88;20180;-78
2023/03/24 02:29:53;;;;;;;1999.90;999.90;;;13.80;99.90;;;;;;6697405;88;20326;-77
2023/03/24 02:40:12;;;;;;;1999.90;999.90;;;13.80;99.90;;;;;;6688258;88;20919;-78
2023/03/24 02:50:33;;;;;;;1999.90;999.90;;;13.70;99.90;;;;;;6692713;88;20206;-78
2023/03/24 03:00:47;;;;;;;1999.90;999.90;;;13.60;99.90;;;;;;6687805;88;20210;-76
2023/03/24 03:10:50;;;;;;;1999.90;999.90;;;13.60;99.90;;;;;;6687372;88;20261;-79
2023/03/24 03:20:57;;;;;;;1999.90;999.90;;;13.70;99.90;;;;;;6690196;88;20191;-76
2023/03/24 03:31:05;;;;;;;1999.90;999.90;;;14.10;99.90;;;;;;6685755;88;20188;-77
2023/03/24 03:41:05;;;;;;;1999.90;999.90;;;14.40;99.90;;;;;;6688808;88;20643;-77
2023/03/24 04:02:41;;;;;;;1999.90;999.90;;;14.70;99.90;;;;;;6742395;88;20533;-81
2023/03/24 04:12:58;;;;;;;1999.90;999.90;;;14.60;99.90;;;;;;6683171;89;20200;-80
2023/03/24 04:23:13;;;;;;;1999.90;999.90;;;14.60;99.90;;;;;;6681509;89;20218;-80
2023/03/24 04:33:23;;;;;;;1999.90;999.90;;;14.60;99.90;;;;;;6648257;89;20307;-80
2023/03/24 04:43:34;;;;;;;1999.90;999.90;;;14.60;99.90;;;;;;6710517;88;20216;-80
2023/03/24 04:53:35;;;;;;;1999.90;999.90;;;14.60;99.90;;;;;;6714547;88;20364;-80
2023/03/24 05:03:36;;;;;;;1999.90;999.90;;;14.80;99.90;;;;;;6713781;88;20192;-81
2023/03/24 05:13:37;;;;;;;1999.90;999.90;;;14.80;99.90;;;;;;6721750;88;20278;-79
2023/03/24 05:23:37;;;;;;;1999.90;999.90;;;14.80;99.90;;;;;;6734508;88;20204;-80
2023/03/24 05:33:38;;;;;;;1999.90;999.90;;;14.80;99.90;;;;;;6736805;88;20968;-79
2023/03/24 05:43:39;;;;;;;1999.90;999.90;;;14.80;99.90;;;;;;6736475;88;20181;-80
2023/03/24 05:53:39;;;;;;;1999.90;999.90;;;13.80;99.90;;;;;;6701086;88;20195;-81
2023/03/24 06:03:40;;;;;;;1999.90;999.90;;;13.70;99.90;;;;;;6666763;89;20248;-81
2023/03/24 06:13:41;;;;;;;1999.90;999.90;;;13.60;99.90;;;;;;6689564;88;20182;-80
2023/03/24 06:23:41;;;;;;;1999.90;999.90;;;13.50;99.90;;;;;;6728495;88;20691;-81
2023/03/24 06:33:42;;;;;;;1999.90;999.90;;;13.50;99.90;;;;;;6734959;88;20605;-82
2023/03/24 06:43:42;;;;;;;1999.90;999.90;;;13.40;99.90;;;;;;6749593;88;20215;-80
2023/03/24 06:53:44;;;;;;;1999.90;999.90;;;13.30;99.90;;;;;;6734958;88;20180;-80
2023/03/24 07:03:45;;;;;;;1999.90;999.90;;;13.00;99.90;;;;;;6744255;88;20210;-81
2023/03/24 07:13:45;;;;;;;1999.90;999.90;;;13.10;99.90;;;;;;6750795;88;20192;-83
2023/03/24 07:23:46;;;;;;;1999.90;999.90;;;13.10;99.90;;;;;;6742544;88;20686;-80
2023/03/24 07:34:27;;;;;;;1999.90;999.90;;;12.90;99.90;;;;;;6759366;77;20638;-83
2023/03/24 07:44:28;;;;;;;1999.90;999.90;;;12.60;99.90;;;;;;6748488;88;20224;-80
2023/03/24 07:54:28;;;;;;;1999.90;999.90;;;12.50;99.90;;;;;;6746490;88;20227;-83
2023/03/24 08:04:31;;;;;;;1999.90;999.90;;;12.40;99.90;;;;;;6746470;88;20185;-82
2023/03/24 08:14:31;;;;;;;1999.90;999.90;;;12.60;99.90;;;;;;6750594;88;20173;-83
2023/03/24 08:24:32;;;;;;;1999.90;999.90;;;12.60;99.90;;;;;;6752844;87;20179;-83
2023/03/24 08:34:33;;;;;;;1999.90;999.90;;;12.70;99.90;;;;;;6767935;87;20242;-82
2023/03/24 08:44:33;;;;;;;1999.90;999.90;;;13.10;99.90;;;;;;6767879;87;21110;-82
2023/03/24 08:54:35;;;;;;;1999.90;999.90;;;13.50;99.90;;;;;;6748316;88;20255;-81
2023/03/24 09:04:36;;;;;;;1999.90;999.90;;;13.40;99.90;;;;;;6713665;88;20184;-82
2023/03/24 09:14:36;;;;;;;1999.90;999.90;;;14.10;99.90;;;;;;6727081;88;20171;-82
2023/03/24 09:24:37;;;;;;;1999.90;999.90;;;15.30;99.90;;;;;;6735848;88;20173;-84
2023/03/24 09:34:38;;;;;;;1999.90;999.90;;;16.40;99.90;;;;;;6730248;88;20236;-83
2023/03/24 09:44:45;;;;;;;1999.90;999.90;;;16.80;99.90;;;;;;6713454;88;20537;-83
2023/03/24 09:54:54;;;;;;;1999.90;999.90;;;16.60;99.90;;;;;;6713370;88;20181;-83
2023/03/24 10:15:23;;;;;;;1999.90;999.90;;;15.70;99.90;;;;;;6705854;88;20221;-79
2023/03/24 10:25:55;;;;;;;1999.90;999.90;;;17.40;99.90;;;;;;6710459;88;20183;-79
2023/03/24 10:36:07;;;;;;;1999.90;999.90;;;17.50;97.10;;;;;;6705660;88;20178;-78
2023/03/24 10:46:11;;;;;;;1999.90;999.90;;;17.70;97.20;;;;;;6705539;88;20482;-79
2023/03/24 10:56:16;;;;;;;1999.90;999.90;;;17.70;96.90;;;;;;6704944;88;20239;-76
2023/03/24 11:06:20;;;;;;;1999.90;999.90;;;18.60;95.90;;;;;;6714596;88;20210;-78
2023/03/24 11:16:30;;;;;;;1999.90;999.90;;;19.50;95.40;;;;;;6709092;88;20205;-78
2023/03/24 11:26:34;;;;;;;1999.90;999.90;;;19.70;95.60;;;;;;6710489;88;20295;-80
2023/03/24 11:36:45;;;;;;;1999.90;999.90;;;19.30;94.80;;;;;;6719431;88;20186;-78
2023/03/24 11:46:53;;;;;;;1999.90;999.90;;;18.90;94.20;;;;;;6709637;88;20190;-77
2023/03/24 11:56:58;;;;;;;1999.90;999.90;;;18.40;94.60;;;;;;6707671;88;20223;-78
2023/03/24 12:07:19;;;;;;;1999.90;999.90;;;18.30;94.70;;;;;;6707124;88;20255;-78
2023/03/24 12:17:28;;;;;;;1999.90;999.90;;;18.20;95.20;;;;;;6715736;88;20239;-80
2023/03/24 12:27:47;;;;;;;1999.90;999.90;;;19.40;95.20;;;;;;6708949;88;20236;-77
2023/03/24 12:38:00;;;;;;;1999.90;999.90;;;18.40;94.50;;;;;;6712332;88;20218;-79
2023/03/24 12:48:19;;;;;;;1999.90;999.90;;;17.40;95.60;;;;;;6716701;88;20182;-77
2023/03/24 12:58:43;;;;;;;1999.90;999.90;;;19.60;94.10;;;;;;6710091;88;20777;-79
2023/03/24 13:08:58;;;;;;;1999.90;999.90;;;18.20;94.60;;;;;;6706207;88;20199;-79
2023/03/24 13:19:01;;;;;;;1999.90;999.90;;;19.20;94.40;;;;;;6720157;88;20231;-79
2023/03/24 13:29:20;;;;;;;1999.90;999.90;;;19.20;93.90;;;;;;6722937;88;20181;-79
2023/03/24 13:39:25;;;;;;;1999.90;999.90;;;18.00;93.80;;;;;;6702873;88;20178;-79
2023/03/24 13:49:25;;;;;;;1999.90;999.90;;;17.70;94.90;;;;;;6704361;88;20206;-78
2023/03/24 13:59:30;;;;;;;1999.90;999.90;;;17.90;97.10;;;;;;6705022;88;20203;-78
2023/03/24 14:09:34;;;;;;;1999.90;999.90;;;18.00;95.60;;;;;;6705378;88;20193;-78
2023/03/24 14:19:42;;;;;;;1999.90;999.90;;;17.60;95.50;;;;;;6709375;88;20518;-78
2023/03/24 14:29:50;;;;;;;1999.90;999.90;;;17.90;95.80;;;;;;6704373;88;20194;-78
2023/03/24 14:39:56;;;;;;;1999.90;999.90;;;17.20;96.80;;;;;;6703764;88;20218;-77
2023/03/24 14:50:00;;;;;;;1999.90;999.90;;;16.70;97.60;;;;;;6705280;88;20830;-78
2023/03/24 15:00:13;;;;;;;1999.90;999.90;;;17.50;96.50;;;;;;6697371;88;20215;-79
2023/03/24 15:10:18;;;;;;;1999.90;999.90;;;17.20;96.20;;;;;;6703325;88;20208;-78
2023/03/24 15:20:20;;;;;;;1999.90;999.90;;;16.50;99.80;;;;;;6698540;88;20190;-79
2023/03/24 15:30:24;;;;;;;1999.90;999.90;;;16.20;99.90;;;;;;6700130;88;20184;-80
2023/03/24 15:40:25;;;;;;;1999.90;999.90;;;16.80;99.90;;;;;;6717568;88;20187;-79
2023/03/24 15:50:31;;;;;;;1999.90;999.90;;;17.50;98.60;;;;;;6713132;88;20232;-80
2023/03/24 16:00:37;;;;;;;1999.90;999.90;;;17.40;97.90;;;;;;6705592;88;20207;-80
2023/03/24 16:21:40;;;;;;;1999.90;999.90;;;16.70;97.90;;;;;;6740390;87;20201;-78
2023/03/24 16:31:41;;;;;;;1999.90;999.90;;;16.70;97.90;;;;;;6746598;87;20239;-81
2023/03/24 16:41:42;;;;;;;1999.90;999.90;;;16.10;97.70;;;;;;6745463;87;20194;-79
2023/03/24 16:51:44;;;;;;;1999.90;999.90;;;15.90;98.30;;;;;;6747489;87;20712;-82
2023/03/24 17:01:45;;;;;;;1999.90;999.90;;;15.90;98.80;;;;;;6736617;88;20190;-79
2023/03/24 17:11:57;;;;;;;1999.90;999.90;;;15.10;99.90;;;;;;6732855;88;20209;-79
2023/03/24 17:22:03;;;;;;;1999.90;999.90;;;11.60;99.90;;;;;;6733527;87;20185;-81
2023/03/24 17:32:03;;;;;;;1999.90;999.90;;;10.70;99.90;;;;;;6746598;87;20182;-80
2023/03/24 17:42:04;;;;;;;1999.90;999.90;;;10.70;99.90;;;;;;6743543;88;20195;-82
2023/03/24 17:52:05;;;;;;;1999.90;999.90;;;10.60;99.90;;;;;;6738025;88;20194;-81
2023/03/24 18:02:06;;;;;;;1999.90;999.90;;;10.80;99.90;;;;;;6748340;87;20162;-78
2023/03/24 18:12:07;;;;;;;1999.90;999.90;;;10.50;99.90;;;;;;6742212;87;20211;-78
2023/03/24 18:22:08;;;;;;;1999.90;999.90;;;10.30;99.90;;;;;;6742275;87;20153;-81
2023/03/24 18:32:09;;;;;;;1999.90;999.90;;;10.30;99.90;;;;;;6752670;87;20214;-83
2023/03/24 18:42:50;;;;;;;1999.90;999.90;;;10.40;99.90;;;;;;6787456;77;20238;-84
2023/03/24 18:52:51;;;;;;;1999.90;999.90;;;10.30;99.90;;;;;;6700938;88;20215;-83
2023/03/24 19:02:52;;;;;;;1999.90;999.90;;;10.20;99.90;;;;;;6681104;89;20214;-80
2023/03/24 19:12:54;;;;;;;1999.90;999.90;;;10.20;99.90;;;;;;6680475;89;20155;-81
2023/03/24 19:22:54;;;;;;;1999.90;999.90;;;10.40;99.90;;;;;;6680725;89;20164;-83
2023/03/24 19:32:55;;;;;;;1999.90;999.90;;;10.60;99.90;;;;;;6694972;88;20169;-82
2023/03/24 19:42:56;;;;;;;1999.90;999.90;;;10.70;99.90;;;;;;6681121;89;20988;-83
2023/03/24 19:52:56;;;;;;;1999.90;999.90;;;10.90;99.90;;;;;;6685965;88;20247;-82
2023/03/24 20:02:57;;;;;;;1999.90;999.90;;;10.90;99.90;;;;;;6716652;88;20510;-83
2023/03/24 20:12:57;;;;;;;1999.90;999.90;;;11.10;99.90;;;;;;6716666;88;20197;-82
2023/03/24 20:22:58;;;;;;;1999.90;999.90;;;11.10;99.90;;;;;;6716617;88;20167;-82
2023/03/24 20:32:58;;;;;;;1999.90;999.90;;;11.30;99.90;;;;;;6716733;88;20170;-83
2023/03/24 20:42:59;;;;;;;1999.90;999.90;;;11.30;99.90;;;;;;6716881;88;20184;-83
2023/03/24 21:04:03;;;;;;;1999.90;999.90;;;11.10;99.90;;;;;;6766993;88;20159;-82
2023/03/24 21:14:04;;;;;;;1999.90;999.90;;;11.10;99.90;;;;;;6730660;88;20919;-82
2023/03/24 21:24:05;;;;;;;1999.90;999.90;;;11.10;99.90;;;;;;6730830;88;20174;-83
2023/03/24 21:34:05;;;;;;;1999.90;999.90;;;10.90;99.90;;;;;;6711568;88;20252;-83
2023/03/24 21:44:08;;;;;;;1999.90;999.90;;;10.90;99.90;;;;;;6740497;88;21025;-81
2023/03/24 21:54:08;;;;;;;1999.90;999.90;;;10.60;99.90;;;;;;6730595;88;20154;-82
2023/03/24 22:04:09;;;;;;;1999.90;999.90;;;10.40;99.90;;;;;;6745473;88;20182;-82
2023/03/24 22:14:30;;;;;;;1999.90;999.90;;;10.30;99.90;;;;;;6763586;77;20166;-80
2023/03/24 22:24:31;;;;;;;1999.90;999.90;;;10.30;99.90;;;;;;6760079;88;20596;-79
2023/03/24 22:34:31;;;;;;;1999.90;999.90;;;10.30;99.90;;;;;;6732696;88;20197;-79
2023/03/24 22:44:32;;;;;;;1999.90;999.90;;;10.30;99.90;;;;;;6735731;88;20487;-78
2023/03/24 22:54:33;;;;;;;1999.90;999.90;;;10.30;99.90;;;;;;6753974;88;20201;-81
2023/03/24 23:04:34;;;;;;;1999.90;999.90;;;10.30;99.90;;;;;;6758375;88;20194;-80
2023/03/24 23:14:36;;;;;;;1999.90;999.90;;;10.30;99.90;;;;;;6758582;88;20545;-80
2023/03/24 23:24:38;;;;;;;1999.90;999.90;;;10.20;99.90;;;;;;6754854;88;20161;-81
2023/03/24 23:34:41;;;;;;;1999.90;999.90;;;10.10;99.90;;;;;;6749637;88;20914;-81
2023/03/24 23:44:42;;;;;;;1999.90;999.90;;;10.30;99.90;;;;;;6746742;88;20192;-80
2023/03/24 23:54:42;;;;;;;1999.90;999.90;;;10.10;99.90;;;;;;6748193;88;20208;-80
